world map with ROS marked

ROS - Airport

This information may not be accurate or current and is not valid for navigation or flight planning. No warranty of fitness for any purpose is made or implied.

flag of Santa Feflag of Argentina

Donate via PayPal

Additional information is available on the NEW Great Circle Mapper

Location
City:  Rosario, Santa Fe, Argentina
ICAO / IATA:SAAR / ROS

Details
Type:Airport (Aerodrome, Airfield)
Use:Public/Civil
Latitude:32°54'13"S (-32.903610)
Longitude:60°47'06"W (-60.784999)
Datum:WGS 1984
Elevation:85 ft (26 m)
Runways:1
Longest:9843 × 148 ft (3000 × 45 m)

Time
Timezone:UTC+31:08 (DST+33:08)
Local Time:

Weather
METAR:SAAR  041400Z 07007KT 9999 SCT030 24/16 Q1023
TAF:SAAR  041100Z 0412/0512 07005KT CAVOK TX28/0418Z TN16/0509Z= TAF SABE 041100Z 0412/0512 07010KT 9999 SCT035 TX26/0418Z TN19/0510Z BECMG 0506/0508 36010KT

Related Locations
Nearby:
Farthest:YTY: 12399 mi / 19954 km
Yangzhou [Taizhou Airport (Yangtai Airport)], 32, CN

Find:

   beyond  
but within

Other Information
Maps:
Sources:

  


 


Great Circle Mapper   Great Circle Mapper
Great Circle Mapper FAQ   Great Circle Mapper FAQ
  Karl's Home Page
KLSē   KLSē Home
   GC on Facebook
Airlines of the World   Airlines of the World
Donate via PayPal


Copyright © 2004-2020, Karl L. Swartz. All rights reserved.
All trademarks mentioned herein belong to their respective owners.

Please see credits for attribution and copyright information.

Karl Swartz <karl@kls2.com>
  Powered by FreeBSD
Valid HTML 4.01!
Labeled with ICRA
hCard Microformat
Geo Microformat